<?xml version="1.0" encoding="UTF-8" standalone="no" ?>
<gpx xmlns="http://www.topografix.com/GPX/1/1" xmlns:xsi="http://www.w3.org/2001/XMLSchema-instance" xsi:schemaLocation="http://www.topografix.com/GPX/1/1 http://www.topografix.com/GPX/1/1/gpx.xsd" version="1.1" creator="VisuGPX - https://www.visugpx.com">
  <metadata>
    <name>12623237-CHAMBOST Ed01</name>
  </metadata>
  <trk>
    <name><![CDATA[12623237-CHAMBOST Ed01]]></name>
    <trkseg>
      <trkpt lat="46.01681" lon="4.51658">
        <ele>578</ele>
        <time>2021-03-02T15:11:41Z</time>
      </trkpt>
      <trkpt lat="46.01689" lon="4.51668">
        <ele>578</ele>
        <time>2021-03-02T15:11:55Z</time>
      </trkpt>
      <trkpt lat="46.01701" lon="4.5166">
        <ele>576</ele>
        <time>2021-03-02T15:12:13Z</time>
      </trkpt>
      <trkpt lat="46.01738" lon="4.51677">
        <ele>572</ele>
        <time>2021-03-02T15:13:05Z</time>
      </trkpt>
      <trkpt lat="46.01757" lon="4.51677">
        <ele>569</ele>
        <time>2021-03-02T15:13:30Z</time>
      </trkpt>
      <trkpt lat="46.01776" lon="4.51681">
        <ele>565</ele>
        <time>2021-03-02T15:13:56Z</time>
      </trkpt>
      <trkpt lat="46.01818" lon="4.51704">
        <ele>554</ele>
        <time>2021-03-02T15:14:56Z</time>
      </trkpt>
      <trkpt lat="46.01831" lon="4.51714">
        <ele>551</ele>
        <time>2021-03-02T15:15:15Z</time>
      </trkpt>
      <trkpt lat="46.01836" lon="4.51716">
        <ele>550</ele>
        <time>2021-03-02T15:15:22Z</time>
      </trkpt>
      <trkpt lat="46.01842" lon="4.51712">
        <ele>549</ele>
        <time>2021-03-02T15:15:31Z</time>
      </trkpt>
      <trkpt lat="46.01844" lon="4.51708">
        <ele>549</ele>
        <time>2021-03-02T15:15:36Z</time>
      </trkpt>
      <trkpt lat="46.01844" lon="4.517">
        <ele>549</ele>
        <time>2021-03-02T15:15:43Z</time>
      </trkpt>
      <trkpt lat="46.0185" lon="4.51692">
        <ele>548</ele>
        <time>2021-03-02T15:15:54Z</time>
      </trkpt>
      <trkpt lat="46.01857" lon="4.51692">
        <ele>547</ele>
        <time>2021-03-02T15:16:03Z</time>
      </trkpt>
      <trkpt lat="46.01858" lon="4.51664">
        <ele>547</ele>
        <time>2021-03-02T15:16:29Z</time>
      </trkpt>
      <trkpt lat="46.01851" lon="4.51627">
        <ele>544</ele>
        <time>2021-03-02T15:17:05Z</time>
      </trkpt>
      <trkpt lat="46.0185" lon="4.5161">
        <ele>542</ele>
        <time>2021-03-02T15:17:21Z</time>
      </trkpt>
      <trkpt lat="46.01855" lon="4.51577">
        <ele>538</ele>
        <time>2021-03-02T15:17:52Z</time>
      </trkpt>
      <trkpt lat="46.01865" lon="4.51533">
        <ele>531</ele>
        <time>2021-03-02T15:18:35Z</time>
      </trkpt>
      <trkpt lat="46.01864" lon="4.51444">
        <ele>521</ele>
        <time>2021-03-02T15:19:57Z</time>
      </trkpt>
      <trkpt lat="46.01866" lon="4.51432">
        <ele>519</ele>
        <time>2021-03-02T15:20:09Z</time>
      </trkpt>
      <trkpt lat="46.01879" lon="4.51438">
        <ele>518</ele>
        <time>2021-03-02T15:20:27Z</time>
      </trkpt>
      <trkpt lat="46.0193" lon="4.51505">
        <ele>516</ele>
        <time>2021-03-02T15:21:59Z</time>
      </trkpt>
      <trkpt lat="46.01948" lon="4.51507">
        <ele>515</ele>
        <time>2021-03-02T15:22:23Z</time>
      </trkpt>
      <trkpt lat="46.01972" lon="4.51504">
        <ele>512</ele>
        <time>2021-03-02T15:22:55Z</time>
      </trkpt>
      <trkpt lat="46.01995" lon="4.51488">
        <ele>508</ele>
        <time>2021-03-02T15:23:29Z</time>
      </trkpt>
      <trkpt lat="46.02016" lon="4.5147">
        <ele>503</ele>
        <time>2021-03-02T15:24:02Z</time>
      </trkpt>
      <trkpt lat="46.0201" lon="4.51454">
        <ele>503</ele>
        <time>2021-03-02T15:24:19Z</time>
      </trkpt>
      <trkpt lat="46.0201" lon="4.51449">
        <ele>502</ele>
        <time>2021-03-02T15:24:23Z</time>
      </trkpt>
      <trkpt lat="46.0203" lon="4.51439">
        <ele>499</ele>
        <time>2021-03-02T15:24:52Z</time>
      </trkpt>
      <trkpt lat="46.02043" lon="4.51428">
        <ele>497</ele>
        <time>2021-03-02T15:25:12Z</time>
      </trkpt>
      <trkpt lat="46.02048" lon="4.5142">
        <ele>496</ele>
        <time>2021-03-02T15:25:22Z</time>
      </trkpt>
      <trkpt lat="46.02052" lon="4.51408">
        <ele>495</ele>
        <time>2021-03-02T15:25:34Z</time>
      </trkpt>
      <trkpt lat="46.02052" lon="4.51398">
        <ele>495</ele>
        <time>2021-03-02T15:25:43Z</time>
      </trkpt>
      <trkpt lat="46.02072" lon="4.51392">
        <ele>494</ele>
        <time>2021-03-02T15:26:11Z</time>
      </trkpt>
      <trkpt lat="46.02077" lon="4.51393">
        <ele>494</ele>
        <time>2021-03-02T15:26:17Z</time>
      </trkpt>
      <trkpt lat="46.0208" lon="4.51397">
        <ele>494</ele>
        <time>2021-03-02T15:26:23Z</time>
      </trkpt>
      <trkpt lat="46.02092" lon="4.51389">
        <ele>492</ele>
        <time>2021-03-02T15:26:40Z</time>
      </trkpt>
      <trkpt lat="46.02092" lon="4.51394">
        <ele>492</ele>
        <time>2021-03-02T15:26:45Z</time>
      </trkpt>
      <trkpt lat="46.02082" lon="4.51407">
        <ele>493</ele>
        <time>2021-03-02T15:27:03Z</time>
      </trkpt>
      <trkpt lat="46.02079" lon="4.51415">
        <ele>493</ele>
        <time>2021-03-02T15:27:11Z</time>
      </trkpt>
      <trkpt lat="46.02076" lon="4.51436">
        <ele>493</ele>
        <time>2021-03-02T15:27:31Z</time>
      </trkpt>
      <trkpt lat="46.02079" lon="4.51465">
        <ele>493</ele>
        <time>2021-03-02T15:27:59Z</time>
      </trkpt>
      <trkpt lat="46.02132" lon="4.51658">
        <ele>489</ele>
        <time>2021-03-02T15:31:11Z</time>
      </trkpt>
      <trkpt lat="46.02161" lon="4.51732">
        <ele>487</ele>
        <time>2021-03-02T15:32:30Z</time>
      </trkpt>
      <trkpt lat="46.02164" lon="4.51749">
        <ele>488</ele>
        <time>2021-03-02T15:32:46Z</time>
      </trkpt>
      <trkpt lat="46.02164" lon="4.51764">
        <ele>487</ele>
        <time>2021-03-02T15:33:00Z</time>
      </trkpt>
      <trkpt lat="46.02162" lon="4.51781">
        <ele>486</ele>
        <time>2021-03-02T15:33:16Z</time>
      </trkpt>
      <trkpt lat="46.02157" lon="4.51802">
        <ele>485</ele>
        <time>2021-03-02T15:33:36Z</time>
      </trkpt>
      <trkpt lat="46.02148" lon="4.51824">
        <ele>484</ele>
        <time>2021-03-02T15:34:00Z</time>
      </trkpt>
      <trkpt lat="46.02127" lon="4.51853">
        <ele>483</ele>
        <time>2021-03-02T15:34:39Z</time>
      </trkpt>
      <trkpt lat="46.02079" lon="4.51904">
        <ele>480</ele>
        <time>2021-03-02T15:35:58Z</time>
      </trkpt>
      <trkpt lat="46.02059" lon="4.51928">
        <ele>479</ele>
        <time>2021-03-02T15:36:33Z</time>
      </trkpt>
      <trkpt lat="46.02054" lon="4.51938">
        <ele>478</ele>
        <time>2021-03-02T15:36:45Z</time>
      </trkpt>
      <trkpt lat="46.02049" lon="4.51963">
        <ele>473</ele>
        <time>2021-03-02T15:37:09Z</time>
      </trkpt>
      <trkpt lat="46.02025" lon="4.52011">
        <ele>466</ele>
        <time>2021-03-02T15:38:03Z</time>
      </trkpt>
      <trkpt lat="46.02016" lon="4.52021">
        <ele>467</ele>
        <time>2021-03-02T15:38:19Z</time>
      </trkpt>
      <trkpt lat="46.02008" lon="4.52024">
        <ele>467</ele>
        <time>2021-03-02T15:38:30Z</time>
      </trkpt>
      <trkpt lat="46.01998" lon="4.52022">
        <ele>469</ele>
        <time>2021-03-02T15:38:43Z</time>
      </trkpt>
      <trkpt lat="46.01986" lon="4.52025">
        <ele>471</ele>
        <time>2021-03-02T15:38:59Z</time>
      </trkpt>
      <trkpt lat="46.01982" lon="4.52034">
        <ele>471</ele>
        <time>2021-03-02T15:39:09Z</time>
      </trkpt>
      <trkpt lat="46.01979" lon="4.52042">
        <ele>471</ele>
        <time>2021-03-02T15:39:18Z</time>
      </trkpt>
      <trkpt lat="46.01977" lon="4.5206">
        <ele>470</ele>
        <time>2021-03-02T15:39:35Z</time>
      </trkpt>
      <trkpt lat="46.01978" lon="4.5207">
        <ele>469</ele>
        <time>2021-03-02T15:39:44Z</time>
      </trkpt>
      <trkpt lat="46.01987" lon="4.52101">
        <ele>465</ele>
        <time>2021-03-02T15:40:15Z</time>
      </trkpt>
      <trkpt lat="46.02001" lon="4.5214">
        <ele>461</ele>
        <time>2021-03-02T15:40:56Z</time>
      </trkpt>
      <trkpt lat="46.02012" lon="4.52183">
        <ele>455</ele>
        <time>2021-03-02T15:41:38Z</time>
      </trkpt>
      <trkpt lat="46.02031" lon="4.52231">
        <ele>445</ele>
        <time>2021-03-02T15:42:29Z</time>
      </trkpt>
      <trkpt lat="46.02043" lon="4.52272">
        <ele>438</ele>
        <time>2021-03-02T15:43:11Z</time>
      </trkpt>
      <trkpt lat="46.02047" lon="4.52276">
        <ele>437</ele>
        <time>2021-03-02T15:43:17Z</time>
      </trkpt>
      <trkpt lat="46.02063" lon="4.52281">
        <ele>434</ele>
        <time>2021-03-02T15:43:39Z</time>
      </trkpt>
      <trkpt lat="46.02074" lon="4.52281">
        <ele>432</ele>
        <time>2021-03-02T15:43:54Z</time>
      </trkpt>
      <trkpt lat="46.02135" lon="4.52266">
        <ele>424</ele>
        <time>2021-03-02T15:45:16Z</time>
      </trkpt>
      <trkpt lat="46.02145" lon="4.52267">
        <ele>423</ele>
        <time>2021-03-02T15:45:30Z</time>
      </trkpt>
      <trkpt lat="46.02167" lon="4.52285">
        <ele>419</ele>
        <time>2021-03-02T15:46:03Z</time>
      </trkpt>
      <trkpt lat="46.02177" lon="4.52298">
        <ele>417</ele>
        <time>2021-03-02T15:46:21Z</time>
      </trkpt>
      <trkpt lat="46.02185" lon="4.52312">
        <ele>415</ele>
        <time>2021-03-02T15:46:38Z</time>
      </trkpt>
      <trkpt lat="46.02193" lon="4.52331">
        <ele>413</ele>
        <time>2021-03-02T15:46:59Z</time>
      </trkpt>
      <trkpt lat="46.02195" lon="4.52342">
        <ele>412</ele>
        <time>2021-03-02T15:47:09Z</time>
      </trkpt>
      <trkpt lat="46.02194" lon="4.52353">
        <ele>411</ele>
        <time>2021-03-02T15:47:20Z</time>
      </trkpt>
      <trkpt lat="46.02191" lon="4.52362">
        <ele>411</ele>
        <time>2021-03-02T15:47:29Z</time>
      </trkpt>
      <trkpt lat="46.02218" lon="4.52325">
        <ele>411</ele>
        <time>2021-03-02T15:48:19Z</time>
      </trkpt>
      <trkpt lat="46.02235" lon="4.52312">
        <ele>410</ele>
        <time>2021-03-02T15:48:44Z</time>
      </trkpt>
      <trkpt lat="46.02257" lon="4.52303">
        <ele>408</ele>
        <time>2021-03-02T15:49:15Z</time>
      </trkpt>
      <trkpt lat="46.02271" lon="4.52294">
        <ele>407</ele>
        <time>2021-03-02T15:49:35Z</time>
      </trkpt>
      <trkpt lat="46.02299" lon="4.52255">
        <ele>406</ele>
        <time>2021-03-02T15:50:27Z</time>
      </trkpt>
      <trkpt lat="46.02325" lon="4.52209">
        <ele>407</ele>
        <time>2021-03-02T15:51:22Z</time>
      </trkpt>
      <trkpt lat="46.02341" lon="4.52193">
        <ele>406</ele>
        <time>2021-03-02T15:51:48Z</time>
      </trkpt>
      <trkpt lat="46.02374" lon="4.52167">
        <ele>402</ele>
        <time>2021-03-02T15:52:38Z</time>
      </trkpt>
      <trkpt lat="46.02429" lon="4.52102">
        <ele>398</ele>
        <time>2021-03-02T15:54:13Z</time>
      </trkpt>
      <trkpt lat="46.02493" lon="4.52015">
        <ele>393</ele>
        <time>2021-03-02T15:56:11Z</time>
      </trkpt>
      <trkpt lat="46.02508" lon="4.5199">
        <ele>392</ele>
        <time>2021-03-02T15:56:41Z</time>
      </trkpt>
      <trkpt lat="46.02526" lon="4.51942">
        <ele>392</ele>
        <time>2021-03-02T15:57:32Z</time>
      </trkpt>
      <trkpt lat="46.02526" lon="4.51948">
        <ele>392</ele>
        <time>2021-03-02T15:57:38Z</time>
      </trkpt>
      <trkpt lat="46.02528" lon="4.5195">
        <ele>391</ele>
        <time>2021-03-02T15:57:41Z</time>
      </trkpt>
      <trkpt lat="46.02534" lon="4.51948">
        <ele>391</ele>
        <time>2021-03-02T15:57:49Z</time>
      </trkpt>
      <trkpt lat="46.02561" lon="4.51923">
        <ele>386</ele>
        <time>2021-03-02T15:58:32Z</time>
      </trkpt>
      <trkpt lat="46.02575" lon="4.51902">
        <ele>384</ele>
        <time>2021-03-02T15:58:59Z</time>
      </trkpt>
      <trkpt lat="46.0258" lon="4.51889">
        <ele>382</ele>
        <time>2021-03-02T15:59:13Z</time>
      </trkpt>
      <trkpt lat="46.02585" lon="4.51856">
        <ele>381</ele>
        <time>2021-03-02T15:59:44Z</time>
      </trkpt>
      <trkpt lat="46.02587" lon="4.51793">
        <ele>380</ele>
        <time>2021-03-02T16:00:42Z</time>
      </trkpt>
      <trkpt lat="46.02585" lon="4.51762">
        <ele>379</ele>
        <time>2021-03-02T16:01:11Z</time>
      </trkpt>
      <trkpt lat="46.02562" lon="4.51665">
        <ele>377</ele>
        <time>2021-03-02T16:02:46Z</time>
      </trkpt>
      <trkpt lat="46.0255" lon="4.51598">
        <ele>378</ele>
        <time>2021-03-02T16:03:50Z</time>
      </trkpt>
      <trkpt lat="46.02545" lon="4.51572">
        <ele>378</ele>
        <time>2021-03-02T16:04:15Z</time>
      </trkpt>
      <trkpt lat="46.02546" lon="4.51557">
        <ele>378</ele>
        <time>2021-03-02T16:04:29Z</time>
      </trkpt>
      <trkpt lat="46.02555" lon="4.51537">
        <ele>376</ele>
        <time>2021-03-02T16:04:51Z</time>
      </trkpt>
      <trkpt lat="46.02574" lon="4.51505">
        <ele>372</ele>
        <time>2021-03-02T16:05:30Z</time>
      </trkpt>
      <trkpt lat="46.02583" lon="4.51494">
        <ele>371</ele>
        <time>2021-03-02T16:05:46Z</time>
      </trkpt>
      <trkpt lat="46.02582" lon="4.51491">
        <ele>371</ele>
        <time>2021-03-02T16:05:49Z</time>
      </trkpt>
      <trkpt lat="46.02639" lon="4.51625">
        <ele>386</ele>
        <time>2021-03-02T16:08:15Z</time>
      </trkpt>
      <trkpt lat="46.02647" lon="4.51676">
        <ele>386</ele>
        <time>2021-03-02T16:09:03Z</time>
      </trkpt>
      <trkpt lat="46.02656" lon="4.51718">
        <ele>387</ele>
        <time>2021-03-02T16:09:44Z</time>
      </trkpt>
      <trkpt lat="46.02675" lon="4.51784">
        <ele>387</ele>
        <time>2021-03-02T16:10:50Z</time>
      </trkpt>
      <trkpt lat="46.02696" lon="4.5182">
        <ele>387</ele>
        <time>2021-03-02T16:11:34Z</time>
      </trkpt>
      <trkpt lat="46.027" lon="4.51831">
        <ele>386</ele>
        <time>2021-03-02T16:11:45Z</time>
      </trkpt>
      <trkpt lat="46.02702" lon="4.51847">
        <ele>386</ele>
        <time>2021-03-02T16:12:00Z</time>
      </trkpt>
      <trkpt lat="46.0269" lon="4.51913">
        <ele>386</ele>
        <time>2021-03-02T16:13:03Z</time>
      </trkpt>
      <trkpt lat="46.02688" lon="4.5193">
        <ele>387</ele>
        <time>2021-03-02T16:13:19Z</time>
      </trkpt>
      <trkpt lat="46.02688" lon="4.5195">
        <ele>389</ele>
        <time>2021-03-02T16:13:38Z</time>
      </trkpt>
      <trkpt lat="46.02717" lon="4.5203">
        <ele>404</ele>
        <time>2021-03-02T16:15:02Z</time>
      </trkpt>
      <trkpt lat="46.02722" lon="4.52028">
        <ele>405</ele>
        <time>2021-03-02T16:15:08Z</time>
      </trkpt>
      <trkpt lat="46.02817" lon="4.52253">
        <ele>428</ele>
        <time>2021-03-02T16:19:12Z</time>
      </trkpt>
      <trkpt lat="46.02817" lon="4.52253">
        <ele>428</ele>
        <time>2021-03-02T16:19:12Z</time>
      </trkpt>
      <trkpt lat="46.02946" lon="4.52683">
        <ele>473</ele>
        <time>2021-03-02T16:26:26Z</time>
      </trkpt>
      <trkpt lat="46.02946" lon="4.52683">
        <ele>473</ele>
        <time>2021-03-02T16:26:26Z</time>
      </trkpt>
      <trkpt lat="46.02946" lon="4.52802">
        <ele>480</ele>
        <time>2021-03-02T16:28:17Z</time>
      </trkpt>
      <trkpt lat="46.02946" lon="4.52802">
        <ele>480</ele>
        <time>2021-03-02T16:28:17Z</time>
      </trkpt>
      <trkpt lat="46.02927" lon="4.52896">
        <ele>481</ele>
        <time>2021-03-02T16:29:47Z</time>
      </trkpt>
      <trkpt lat="46.02927" lon="4.52896">
        <ele>481</ele>
        <time>2021-03-02T16:29:48Z</time>
      </trkpt>
      <trkpt lat="46.02931" lon="4.52934">
        <ele>485</ele>
        <time>2021-03-02T16:30:23Z</time>
      </trkpt>
      <trkpt lat="46.02931" lon="4.52934">
        <ele>485</ele>
        <time>2021-03-02T16:30:23Z</time>
      </trkpt>
      <trkpt lat="46.02965" lon="4.52972">
        <ele>499</ele>
        <time>2021-03-02T16:31:21Z</time>
      </trkpt>
      <trkpt lat="46.02959" lon="4.52978">
        <ele>496</ele>
        <time>2021-03-02T16:31:30Z</time>
      </trkpt>
      <trkpt lat="46.02979" lon="4.53011">
        <ele>504</ele>
        <time>2021-03-02T16:32:11Z</time>
      </trkpt>
      <trkpt lat="46.02977" lon="4.53043">
        <ele>505</ele>
        <time>2021-03-02T16:32:41Z</time>
      </trkpt>
      <trkpt lat="46.02959" lon="4.53097">
        <ele>503</ele>
        <time>2021-03-02T16:33:36Z</time>
      </trkpt>
      <trkpt lat="46.02938" lon="4.53184">
        <ele>506</ele>
        <time>2021-03-02T16:35:02Z</time>
      </trkpt>
      <trkpt lat="46.02919" lon="4.53298">
        <ele>509</ele>
        <time>2021-03-02T16:36:50Z</time>
      </trkpt>
      <trkpt lat="46.02905" lon="4.53399">
        <ele>509</ele>
        <time>2021-03-02T16:38:26Z</time>
      </trkpt>
      <trkpt lat="46.02894" lon="4.53492">
        <ele>505</ele>
        <time>2021-03-02T16:39:53Z</time>
      </trkpt>
      <trkpt lat="46.029" lon="4.53526">
        <ele>506</ele>
        <time>2021-03-02T16:40:26Z</time>
      </trkpt>
      <trkpt lat="46.02915" lon="4.53559">
        <ele>509</ele>
        <time>2021-03-02T16:41:02Z</time>
      </trkpt>
      <trkpt lat="46.02938" lon="4.53588">
        <ele>516</ele>
        <time>2021-03-02T16:41:43Z</time>
      </trkpt>
      <trkpt lat="46.0293" lon="4.53615">
        <ele>515</ele>
        <time>2021-03-02T16:42:10Z</time>
      </trkpt>
      <trkpt lat="46.02907" lon="4.53656">
        <ele>509</ele>
        <time>2021-03-02T16:42:59Z</time>
      </trkpt>
      <trkpt lat="46.02889" lon="4.53722">
        <ele>511</ele>
        <time>2021-03-02T16:44:05Z</time>
      </trkpt>
      <trkpt lat="46.02883" lon="4.53794">
        <ele>514</ele>
        <time>2021-03-02T16:45:12Z</time>
      </trkpt>
      <trkpt lat="46.02886" lon="4.53854">
        <ele>515</ele>
        <time>2021-03-02T16:46:08Z</time>
      </trkpt>
      <trkpt lat="46.02901" lon="4.539">
        <ele>517</ele>
        <time>2021-03-02T16:46:55Z</time>
      </trkpt>
      <trkpt lat="46.02933" lon="4.53947">
        <ele>524</ele>
        <time>2021-03-02T16:47:56Z</time>
      </trkpt>
      <trkpt lat="46.02938" lon="4.53959">
        <ele>525</ele>
        <time>2021-03-02T16:48:09Z</time>
      </trkpt>
      <trkpt lat="46.02958" lon="4.54031">
        <ele>531</ele>
        <time>2021-03-02T16:49:20Z</time>
      </trkpt>
      <trkpt lat="46.02964" lon="4.54046">
        <ele>533</ele>
        <time>2021-03-02T16:49:37Z</time>
      </trkpt>
      <trkpt lat="46.02995" lon="4.541">
        <ele>533</ele>
        <time>2021-03-02T16:50:41Z</time>
      </trkpt>
      <trkpt lat="46.03002" lon="4.54105">
        <ele>533</ele>
        <time>2021-03-02T16:50:52Z</time>
      </trkpt>
      <trkpt lat="46.03002" lon="4.54111">
        <ele>533</ele>
        <time>2021-03-02T16:50:57Z</time>
      </trkpt>
      <trkpt lat="46.02995" lon="4.54128">
        <ele>533</ele>
        <time>2021-03-02T16:51:16Z</time>
      </trkpt>
      <trkpt lat="46.02958" lon="4.54119">
        <ele>537</ele>
        <time>2021-03-02T16:52:06Z</time>
      </trkpt>
      <trkpt lat="46.02931" lon="4.54107">
        <ele>538</ele>
        <time>2021-03-02T16:52:44Z</time>
      </trkpt>
      <trkpt lat="46.02887" lon="4.54075">
        <ele>540</ele>
        <time>2021-03-02T16:53:49Z</time>
      </trkpt>
      <trkpt lat="46.02875" lon="4.5407">
        <ele>541</ele>
        <time>2021-03-02T16:54:06Z</time>
      </trkpt>
      <trkpt lat="46.02802" lon="4.54051">
        <ele>539</ele>
        <time>2021-03-02T16:55:45Z</time>
      </trkpt>
      <trkpt lat="46.02791" lon="4.54052">
        <ele>538</ele>
        <time>2021-03-02T16:56:00Z</time>
      </trkpt>
      <trkpt lat="46.02775" lon="4.54057">
        <ele>537</ele>
        <time>2021-03-02T16:56:22Z</time>
      </trkpt>
      <trkpt lat="46.02718" lon="4.54095">
        <ele>540</ele>
        <time>2021-03-02T16:57:45Z</time>
      </trkpt>
      <trkpt lat="46.02672" lon="4.541">
        <ele>533</ele>
        <time>2021-03-02T16:58:47Z</time>
      </trkpt>
      <trkpt lat="46.02659" lon="4.54097">
        <ele>535</ele>
        <time>2021-03-02T16:59:04Z</time>
      </trkpt>
      <trkpt lat="46.02652" lon="4.5409">
        <ele>537</ele>
        <time>2021-03-02T16:59:16Z</time>
      </trkpt>
      <trkpt lat="46.02649" lon="4.54078">
        <ele>538</ele>
        <time>2021-03-02T16:59:28Z</time>
      </trkpt>
      <trkpt lat="46.02658" lon="4.54003">
        <ele>535</ele>
        <time>2021-03-02T17:00:38Z</time>
      </trkpt>
      <trkpt lat="46.0268" lon="4.53899">
        <ele>527</ele>
        <time>2021-03-02T17:02:19Z</time>
      </trkpt>
      <trkpt lat="46.02679" lon="4.53868">
        <ele>525</ele>
        <time>2021-03-02T17:02:48Z</time>
      </trkpt>
      <trkpt lat="46.02671" lon="4.53788">
        <ele>518</ele>
        <time>2021-03-02T17:04:03Z</time>
      </trkpt>
      <trkpt lat="46.02668" lon="4.53777">
        <ele>518</ele>
        <time>2021-03-02T17:04:14Z</time>
      </trkpt>
      <trkpt lat="46.02657" lon="4.53751">
        <ele>518</ele>
        <time>2021-03-02T17:04:42Z</time>
      </trkpt>
      <trkpt lat="46.02581" lon="4.53688">
        <ele>530</ele>
        <time>2021-03-02T17:06:39Z</time>
      </trkpt>
      <trkpt lat="46.02569" lon="4.53688">
        <ele>534</ele>
        <time>2021-03-02T17:06:55Z</time>
      </trkpt>
      <trkpt lat="46.02541" lon="4.53673">
        <ele>543</ele>
        <time>2021-03-02T17:07:35Z</time>
      </trkpt>
      <trkpt lat="46.02528" lon="4.53652">
        <ele>547</ele>
        <time>2021-03-02T17:08:01Z</time>
      </trkpt>
      <trkpt lat="46.02523" lon="4.5363">
        <ele>548</ele>
        <time>2021-03-02T17:08:22Z</time>
      </trkpt>
      <trkpt lat="46.02543" lon="4.53585">
        <ele>539</ele>
        <time>2021-03-02T17:09:12Z</time>
      </trkpt>
      <trkpt lat="46.02548" lon="4.53559">
        <ele>536</ele>
        <time>2021-03-02T17:09:37Z</time>
      </trkpt>
      <trkpt lat="46.0255" lon="4.53514">
        <ele>533</ele>
        <time>2021-03-02T17:10:18Z</time>
      </trkpt>
      <trkpt lat="46.02549" lon="4.53481">
        <ele>531</ele>
        <time>2021-03-02T17:10:49Z</time>
      </trkpt>
      <trkpt lat="46.02514" lon="4.53283">
        <ele>532</ele>
        <time>2021-03-02T17:13:58Z</time>
      </trkpt>
      <trkpt lat="46.02499" lon="4.5323">
        <ele>532</ele>
        <time>2021-03-02T17:14:51Z</time>
      </trkpt>
      <trkpt lat="46.02501" lon="4.53222">
        <ele>531</ele>
        <time>2021-03-02T17:14:59Z</time>
      </trkpt>
      <trkpt lat="46.02499" lon="4.53215">
        <ele>531</ele>
        <time>2021-03-02T17:15:06Z</time>
      </trkpt>
      <trkpt lat="46.02448" lon="4.53173">
        <ele>549</ele>
        <time>2021-03-02T17:16:25Z</time>
      </trkpt>
      <trkpt lat="46.02423" lon="4.53147">
        <ele>558</ele>
        <time>2021-03-02T17:17:06Z</time>
      </trkpt>
      <trkpt lat="46.02411" lon="4.53119">
        <ele>560</ele>
        <time>2021-03-02T17:17:36Z</time>
      </trkpt>
      <trkpt lat="46.02408" lon="4.53074">
        <ele>559</ele>
        <time>2021-03-02T17:18:18Z</time>
      </trkpt>
      <trkpt lat="46.02411" lon="4.53034">
        <ele>558</ele>
        <time>2021-03-02T17:18:55Z</time>
      </trkpt>
      <trkpt lat="46.02407" lon="4.53016">
        <ele>559</ele>
        <time>2021-03-02T17:19:13Z</time>
      </trkpt>
      <trkpt lat="46.02394" lon="4.53009">
        <ele>560</ele>
        <time>2021-03-02T17:19:31Z</time>
      </trkpt>
      <trkpt lat="46.0237" lon="4.53024">
        <ele>562</ele>
        <time>2021-03-02T17:20:06Z</time>
      </trkpt>
      <trkpt lat="46.02341" lon="4.53112">
        <ele>574</ele>
        <time>2021-03-02T17:21:37Z</time>
      </trkpt>
      <trkpt lat="46.02329" lon="4.5317">
        <ele>581</ele>
        <time>2021-03-02T17:22:33Z</time>
      </trkpt>
      <trkpt lat="46.02315" lon="4.53227">
        <ele>586</ele>
        <time>2021-03-02T17:23:29Z</time>
      </trkpt>
      <trkpt lat="46.02315" lon="4.53335">
        <ele>597</ele>
        <time>2021-03-02T17:25:09Z</time>
      </trkpt>
      <trkpt lat="46.02318" lon="4.53379">
        <ele>599</ele>
        <time>2021-03-02T17:25:50Z</time>
      </trkpt>
      <trkpt lat="46.02323" lon="4.53476">
        <ele>603</ele>
        <time>2021-03-02T17:27:20Z</time>
      </trkpt>
      <trkpt lat="46.02324" lon="4.53525">
        <ele>606</ele>
        <time>2021-03-02T17:28:05Z</time>
      </trkpt>
      <trkpt lat="46.02314" lon="4.53589">
        <ele>610</ele>
        <time>2021-03-02T17:29:06Z</time>
      </trkpt>
      <trkpt lat="46.02279" lon="4.53688">
        <ele>614</ele>
        <time>2021-03-02T17:30:49Z</time>
      </trkpt>
      <trkpt lat="46.02269" lon="4.537">
        <ele>615</ele>
        <time>2021-03-02T17:31:06Z</time>
      </trkpt>
      <trkpt lat="46.02239" lon="4.53747">
        <ele>620</ele>
        <time>2021-03-02T17:32:06Z</time>
      </trkpt>
      <trkpt lat="46.02222" lon="4.53781">
        <ele>624</ele>
        <time>2021-03-02T17:32:44Z</time>
      </trkpt>
      <trkpt lat="46.02197" lon="4.53811">
        <ele>627</ele>
        <time>2021-03-02T17:33:28Z</time>
      </trkpt>
      <trkpt lat="46.02153" lon="4.53862">
        <ele>633</ele>
        <time>2021-03-02T17:34:43Z</time>
      </trkpt>
      <trkpt lat="46.02085" lon="4.53915">
        <ele>637</ele>
        <time>2021-03-02T17:36:26Z</time>
      </trkpt>
      <trkpt lat="46.02045" lon="4.53917">
        <ele>638</ele>
        <time>2021-03-02T17:37:20Z</time>
      </trkpt>
      <trkpt lat="46.02016" lon="4.53907">
        <ele>636</ele>
        <time>2021-03-02T17:38:00Z</time>
      </trkpt>
      <trkpt lat="46.01966" lon="4.53875">
        <ele>633</ele>
        <time>2021-03-02T17:39:13Z</time>
      </trkpt>
      <trkpt lat="46.01933" lon="4.53865">
        <ele>634</ele>
        <time>2021-03-02T17:39:58Z</time>
      </trkpt>
      <trkpt lat="46.01893" lon="4.53873">
        <ele>634</ele>
        <time>2021-03-02T17:40:52Z</time>
      </trkpt>
      <trkpt lat="46.01845" lon="4.53906">
        <ele>636</ele>
        <time>2021-03-02T17:42:03Z</time>
      </trkpt>
      <trkpt lat="46.01811" lon="4.53951">
        <ele>636</ele>
        <time>2021-03-02T17:43:04Z</time>
      </trkpt>
      <trkpt lat="46.01793" lon="4.53985">
        <ele>635</ele>
        <time>2021-03-02T17:43:44Z</time>
      </trkpt>
      <trkpt lat="46.01796" lon="4.54029">
        <ele>637</ele>
        <time>2021-03-02T17:44:25Z</time>
      </trkpt>
      <trkpt lat="46.01841" lon="4.54164">
        <ele>645</ele>
        <time>2021-03-02T17:46:43Z</time>
      </trkpt>
      <trkpt lat="46.01858" lon="4.5423">
        <ele>648</ele>
        <time>2021-03-02T17:47:49Z</time>
      </trkpt>
      <trkpt lat="46.01858" lon="4.54308">
        <ele>649</ele>
        <time>2021-03-02T17:49:01Z</time>
      </trkpt>
      <trkpt lat="46.01846" lon="4.54361">
        <ele>649</ele>
        <time>2021-03-02T17:49:53Z</time>
      </trkpt>
      <trkpt lat="46.01814" lon="4.5439">
        <ele>642</ele>
        <time>2021-03-02T17:50:43Z</time>
      </trkpt>
      <trkpt lat="46.01789" lon="4.54427">
        <ele>638</ele>
        <time>2021-03-02T17:51:31Z</time>
      </trkpt>
      <trkpt lat="46.01767" lon="4.54494">
        <ele>642</ele>
        <time>2021-03-02T17:52:40Z</time>
      </trkpt>
      <trkpt lat="46.01737" lon="4.54531">
        <ele>644</ele>
        <time>2021-03-02T17:53:32Z</time>
      </trkpt>
      <trkpt lat="46.01703" lon="4.54538">
        <ele>644</ele>
        <time>2021-03-02T17:54:18Z</time>
      </trkpt>
      <trkpt lat="46.01678" lon="4.54526">
        <ele>641</ele>
        <time>2021-03-02T17:54:53Z</time>
      </trkpt>
      <trkpt lat="46.01654" lon="4.54498">
        <ele>637</ele>
        <time>2021-03-02T17:55:35Z</time>
      </trkpt>
      <trkpt lat="46.01613" lon="4.54427">
        <ele>638</ele>
        <time>2021-03-02T17:57:00Z</time>
      </trkpt>
      <trkpt lat="46.01583" lon="4.54349">
        <ele>630</ele>
        <time>2021-03-02T17:58:23Z</time>
      </trkpt>
      <trkpt lat="46.01562" lon="4.54315">
        <ele>626</ele>
        <time>2021-03-02T17:59:05Z</time>
      </trkpt>
      <trkpt lat="46.0152" lon="4.54264">
        <ele>622</ele>
        <time>2021-03-02T18:00:18Z</time>
      </trkpt>
      <trkpt lat="46.01488" lon="4.5425">
        <ele>622</ele>
        <time>2021-03-02T18:01:03Z</time>
      </trkpt>
      <trkpt lat="46.0147" lon="4.54247">
        <ele>619</ele>
        <time>2021-03-02T18:01:27Z</time>
      </trkpt>
      <trkpt lat="46.01453" lon="4.5425">
        <ele>618</ele>
        <time>2021-03-02T18:01:50Z</time>
      </trkpt>
      <trkpt lat="46.01414" lon="4.54282">
        <ele>624</ele>
        <time>2021-03-02T18:02:50Z</time>
      </trkpt>
      <trkpt lat="46.01379" lon="4.54331">
        <ele>633</ele>
        <time>2021-03-02T18:03:55Z</time>
      </trkpt>
      <trkpt lat="46.01352" lon="4.54376">
        <ele>639</ele>
        <time>2021-03-02T18:04:50Z</time>
      </trkpt>
      <trkpt lat="46.01332" lon="4.54367">
        <ele>634</ele>
        <time>2021-03-02T18:05:18Z</time>
      </trkpt>
      <trkpt lat="46.01309" lon="4.54308">
        <ele>631</ele>
        <time>2021-03-02T18:06:21Z</time>
      </trkpt>
      <trkpt lat="46.01272" lon="4.542">
        <ele>626</ele>
        <time>2021-03-02T18:08:12Z</time>
      </trkpt>
      <trkpt lat="46.01258" lon="4.54143">
        <ele>621</ele>
        <time>2021-03-02T18:09:08Z</time>
      </trkpt>
      <trkpt lat="46.01228" lon="4.5415">
        <ele>626</ele>
        <time>2021-03-02T18:09:49Z</time>
      </trkpt>
      <trkpt lat="46.01099" lon="4.54193">
        <ele>640</ele>
        <time>2021-03-02T18:12:46Z</time>
      </trkpt>
      <trkpt lat="46.0107" lon="4.54195">
        <ele>643</ele>
        <time>2021-03-02T18:13:24Z</time>
      </trkpt>
      <trkpt lat="46.01035" lon="4.54175">
        <ele>644</ele>
        <time>2021-03-02T18:14:15Z</time>
      </trkpt>
      <trkpt lat="46.01004" lon="4.54164">
        <ele>647</ele>
        <time>2021-03-02T18:14:57Z</time>
      </trkpt>
      <trkpt lat="46.0096" lon="4.54145">
        <ele>656</ele>
        <time>2021-03-02T18:15:59Z</time>
      </trkpt>
      <trkpt lat="46.0095" lon="4.54134">
        <ele>660</ele>
        <time>2021-03-02T18:16:15Z</time>
      </trkpt>
      <trkpt lat="46.00964" lon="4.54116">
        <ele>660</ele>
        <time>2021-03-02T18:16:40Z</time>
      </trkpt>
      <trkpt lat="46.01039" lon="4.54059">
        <ele>651</ele>
        <time>2021-03-02T18:18:34Z</time>
      </trkpt>
      <trkpt lat="46.01066" lon="4.54011">
        <ele>650</ele>
        <time>2021-03-02T18:19:31Z</time>
      </trkpt>
      <trkpt lat="46.01075" lon="4.53931">
        <ele>652</ele>
        <time>2021-03-02T18:20:46Z</time>
      </trkpt>
      <trkpt lat="46.01075" lon="4.53849">
        <ele>657</ele>
        <time>2021-03-02T18:22:02Z</time>
      </trkpt>
      <trkpt lat="46.01097" lon="4.53759">
        <ele>658</ele>
        <time>2021-03-02T18:23:30Z</time>
      </trkpt>
      <trkpt lat="46.01119" lon="4.53734">
        <ele>649</ele>
        <time>2021-03-02T18:24:08Z</time>
      </trkpt>
      <trkpt lat="46.01135" lon="4.53708">
        <ele>643</ele>
        <time>2021-03-02T18:24:40Z</time>
      </trkpt>
      <trkpt lat="46.0113" lon="4.5368">
        <ele>643</ele>
        <time>2021-03-02T18:25:07Z</time>
      </trkpt>
      <trkpt lat="46.01113" lon="4.53658">
        <ele>645</ele>
        <time>2021-03-02T18:25:37Z</time>
      </trkpt>
      <trkpt lat="46.01067" lon="4.5361">
        <ele>638</ele>
        <time>2021-03-02T18:26:53Z</time>
      </trkpt>
      <trkpt lat="46.01011" lon="4.53582">
        <ele>638</ele>
        <time>2021-03-02T18:28:12Z</time>
      </trkpt>
      <trkpt lat="46.00937" lon="4.53576">
        <ele>635</ele>
        <time>2021-03-02T18:29:51Z</time>
      </trkpt>
      <trkpt lat="46.00898" lon="4.53583">
        <ele>636</ele>
        <time>2021-03-02T18:30:44Z</time>
      </trkpt>
      <trkpt lat="46.00847" lon="4.53578">
        <ele>631</ele>
        <time>2021-03-02T18:31:52Z</time>
      </trkpt>
      <trkpt lat="46.00762" lon="4.53589">
        <ele>629</ele>
        <time>2021-03-02T18:33:46Z</time>
      </trkpt>
      <trkpt lat="46.00734" lon="4.53588">
        <ele>628</ele>
        <time>2021-03-02T18:34:23Z</time>
      </trkpt>
      <trkpt lat="46.00693" lon="4.5358">
        <ele>627</ele>
        <time>2021-03-02T18:35:18Z</time>
      </trkpt>
      <trkpt lat="46.00653" lon="4.53583">
        <ele>630</ele>
        <time>2021-03-02T18:36:12Z</time>
      </trkpt>
      <trkpt lat="46.00622" lon="4.53596">
        <ele>634</ele>
        <time>2021-03-02T18:36:55Z</time>
      </trkpt>
      <trkpt lat="46.00592" lon="4.53604">
        <ele>636</ele>
        <time>2021-03-02T18:37:35Z</time>
      </trkpt>
      <trkpt lat="46.0055" lon="4.53603">
        <ele>640</ele>
        <time>2021-03-02T18:38:32Z</time>
      </trkpt>
      <trkpt lat="46.00521" lon="4.53586">
        <ele>642</ele>
        <time>2021-03-02T18:39:13Z</time>
      </trkpt>
      <trkpt lat="46.00465" lon="4.5354">
        <ele>642</ele>
        <time>2021-03-02T18:40:39Z</time>
      </trkpt>
      <trkpt lat="46.00447" lon="4.53537">
        <ele>640</ele>
        <time>2021-03-02T18:41:04Z</time>
      </trkpt>
      <trkpt lat="46.00444" lon="4.53516">
        <ele>641</ele>
        <time>2021-03-02T18:41:23Z</time>
      </trkpt>
      <trkpt lat="46.00447" lon="4.53537">
        <ele>640</ele>
        <time>2021-03-02T18:41:43Z</time>
      </trkpt>
      <trkpt lat="46.00443" lon="4.53536">
        <ele>640</ele>
        <time>2021-03-02T18:41:49Z</time>
      </trkpt>
      <trkpt lat="46.00431" lon="4.53509">
        <ele>641</ele>
        <time>2021-03-02T18:42:18Z</time>
      </trkpt>
      <trkpt lat="46.00422" lon="4.53495">
        <ele>642</ele>
        <time>2021-03-02T18:42:36Z</time>
      </trkpt>
      <trkpt lat="46.0043" lon="4.53538">
        <ele>638</ele>
        <time>2021-03-02T18:43:17Z</time>
      </trkpt>
      <trkpt lat="46.00431" lon="4.53551">
        <ele>637</ele>
        <time>2021-03-02T18:43:29Z</time>
      </trkpt>
      <trkpt lat="46.00429" lon="4.53561">
        <ele>636</ele>
        <time>2021-03-02T18:43:39Z</time>
      </trkpt>
      <trkpt lat="46.00413" lon="4.53601">
        <ele>633</ele>
        <time>2021-03-02T18:44:22Z</time>
      </trkpt>
      <trkpt lat="46.00404" lon="4.53614">
        <ele>631</ele>
        <time>2021-03-02T18:44:39Z</time>
      </trkpt>
      <trkpt lat="46.00352" lon="4.53677">
        <ele>617</ele>
        <time>2021-03-02T18:46:10Z</time>
      </trkpt>
      <trkpt lat="46.0034" lon="4.53696">
        <ele>614</ele>
        <time>2021-03-02T18:46:33Z</time>
      </trkpt>
      <trkpt lat="46.00333" lon="4.53711">
        <ele>612</ele>
        <time>2021-03-02T18:46:50Z</time>
      </trkpt>
      <trkpt lat="46.00327" lon="4.53749">
        <ele>612</ele>
        <time>2021-03-02T18:47:26Z</time>
      </trkpt>
      <trkpt lat="46.00328" lon="4.53757">
        <ele>612</ele>
        <time>2021-03-02T18:47:34Z</time>
      </trkpt>
      <trkpt lat="46.00335" lon="4.53771">
        <ele>613</ele>
        <time>2021-03-02T18:47:50Z</time>
      </trkpt>
      <trkpt lat="46.00331" lon="4.53776">
        <ele>611</ele>
        <time>2021-03-02T18:47:57Z</time>
      </trkpt>
      <trkpt lat="46.00311" lon="4.53717">
        <ele>603</ele>
        <time>2021-03-02T18:48:58Z</time>
      </trkpt>
      <trkpt lat="46.00311" lon="4.53717">
        <ele>603</ele>
        <time>2021-03-02T18:48:58Z</time>
      </trkpt>
      <trkpt lat="46.00356" lon="4.53567">
        <ele>613</ele>
        <time>2021-03-02T18:51:29Z</time>
      </trkpt>
      <trkpt lat="46.00357" lon="4.53568">
        <ele>613</ele>
        <time>2021-03-02T18:51:31Z</time>
      </trkpt>
      <trkpt lat="46.00359" lon="4.53554">
        <ele>617</ele>
        <time>2021-03-02T18:51:44Z</time>
      </trkpt>
      <trkpt lat="46.00357" lon="4.53548">
        <ele>617</ele>
        <time>2021-03-02T18:51:50Z</time>
      </trkpt>
      <trkpt lat="46.00353" lon="4.53542">
        <ele>617</ele>
        <time>2021-03-02T18:51:58Z</time>
      </trkpt>
      <trkpt lat="46.00334" lon="4.5353">
        <ele>615</ele>
        <time>2021-03-02T18:52:26Z</time>
      </trkpt>
      <trkpt lat="46.00272" lon="4.53501">
        <ele>611</ele>
        <time>2021-03-02T18:53:53Z</time>
      </trkpt>
      <trkpt lat="46.00248" lon="4.53481">
        <ele>614</ele>
        <time>2021-03-02T18:54:30Z</time>
      </trkpt>
      <trkpt lat="46.0024" lon="4.53479">
        <ele>615</ele>
        <time>2021-03-02T18:54:40Z</time>
      </trkpt>
      <trkpt lat="46.00218" lon="4.53479">
        <ele>615</ele>
        <time>2021-03-02T18:55:10Z</time>
      </trkpt>
      <trkpt lat="46.00192" lon="4.53489">
        <ele>612</ele>
        <time>2021-03-02T18:55:46Z</time>
      </trkpt>
      <trkpt lat="46.00169" lon="4.53495">
        <ele>611</ele>
        <time>2021-03-02T18:56:17Z</time>
      </trkpt>
      <trkpt lat="46.00147" lon="4.53492">
        <ele>608</ele>
        <time>2021-03-02T18:56:46Z</time>
      </trkpt>
      <trkpt lat="46.00137" lon="4.53484">
        <ele>608</ele>
        <time>2021-03-02T18:57:02Z</time>
      </trkpt>
      <trkpt lat="46.00127" lon="4.53468">
        <ele>610</ele>
        <time>2021-03-02T18:57:22Z</time>
      </trkpt>
      <trkpt lat="46.0011" lon="4.53434">
        <ele>615</ele>
        <time>2021-03-02T18:58:00Z</time>
      </trkpt>
      <trkpt lat="46.00082" lon="4.53397">
        <ele>618</ele>
        <time>2021-03-02T18:58:51Z</time>
      </trkpt>
      <trkpt lat="46.00072" lon="4.53378">
        <ele>618</ele>
        <time>2021-03-02T18:59:13Z</time>
      </trkpt>
      <trkpt lat="46.00063" lon="4.53358">
        <ele>619</ele>
        <time>2021-03-02T18:59:35Z</time>
      </trkpt>
      <trkpt lat="46.00054" lon="4.53315">
        <ele>623</ele>
        <time>2021-03-02T19:00:17Z</time>
      </trkpt>
      <trkpt lat="46.00036" lon="4.53263">
        <ele>625</ele>
        <time>2021-03-02T19:01:11Z</time>
      </trkpt>
      <trkpt lat="46.00024" lon="4.53237">
        <ele>624</ele>
        <time>2021-03-02T19:01:40Z</time>
      </trkpt>
      <trkpt lat="46.00005" lon="4.53206">
        <ele>623</ele>
        <time>2021-03-02T19:02:18Z</time>
      </trkpt>
      <trkpt lat="46" lon="4.53192">
        <ele>624</ele>
        <time>2021-03-02T19:02:33Z</time>
      </trkpt>
      <trkpt lat="45.99996" lon="4.53173">
        <ele>626</ele>
        <time>2021-03-02T19:02:51Z</time>
      </trkpt>
      <trkpt lat="46.00002" lon="4.53155">
        <ele>628</ele>
        <time>2021-03-02T19:03:10Z</time>
      </trkpt>
      <trkpt lat="46.00006" lon="4.53156">
        <ele>629</ele>
        <time>2021-03-02T19:03:15Z</time>
      </trkpt>
      <trkpt lat="46.00002" lon="4.53155">
        <ele>628</ele>
        <time>2021-03-02T19:03:20Z</time>
      </trkpt>
      <trkpt lat="45.99983" lon="4.53105">
        <ele>625</ele>
        <time>2021-03-02T19:04:13Z</time>
      </trkpt>
      <trkpt lat="45.99972" lon="4.53057">
        <ele>628</ele>
        <time>2021-03-02T19:05:00Z</time>
      </trkpt>
      <trkpt lat="45.99967" lon="4.53043">
        <ele>629</ele>
        <time>2021-03-02T19:05:15Z</time>
      </trkpt>
      <trkpt lat="45.99962" lon="4.53033">
        <ele>631</ele>
        <time>2021-03-02T19:05:26Z</time>
      </trkpt>
      <trkpt lat="45.99933" lon="4.52994">
        <ele>638</ele>
        <time>2021-03-02T19:06:19Z</time>
      </trkpt>
      <trkpt lat="45.99898" lon="4.52988">
        <ele>638</ele>
        <time>2021-03-02T19:07:06Z</time>
      </trkpt>
      <trkpt lat="45.99858" lon="4.52994">
        <ele>635</ele>
        <time>2021-03-02T19:08:00Z</time>
      </trkpt>
      <trkpt lat="45.99828" lon="4.53019">
        <ele>627</ele>
        <time>2021-03-02T19:08:46Z</time>
      </trkpt>
      <trkpt lat="45.99822" lon="4.53021">
        <ele>627</ele>
        <time>2021-03-02T19:08:54Z</time>
      </trkpt>
      <trkpt lat="45.99816" lon="4.52985">
        <ele>635</ele>
        <time>2021-03-02T19:09:29Z</time>
      </trkpt>
      <trkpt lat="45.99772" lon="4.52832">
        <ele>629</ele>
        <time>2021-03-02T19:12:02Z</time>
      </trkpt>
      <trkpt lat="45.99772" lon="4.52832">
        <ele>629</ele>
        <time>2021-03-02T19:12:02Z</time>
      </trkpt>
      <trkpt lat="45.99801" lon="4.52502">
        <ele>594</ele>
        <time>2021-03-02T19:17:10Z</time>
      </trkpt>
      <trkpt lat="45.99798" lon="4.52501">
        <ele>593</ele>
        <time>2021-03-02T19:17:15Z</time>
      </trkpt>
      <trkpt lat="45.99802" lon="4.52475">
        <ele>595</ele>
        <time>2021-03-02T19:17:39Z</time>
      </trkpt>
      <trkpt lat="45.99794" lon="4.52439">
        <ele>595</ele>
        <time>2021-03-02T19:18:14Z</time>
      </trkpt>
      <trkpt lat="45.9976" lon="4.52394">
        <ele>593</ele>
        <time>2021-03-02T19:19:16Z</time>
      </trkpt>
      <trkpt lat="45.99729" lon="4.52373">
        <ele>592</ele>
        <time>2021-03-02T19:20:02Z</time>
      </trkpt>
      <trkpt lat="45.99702" lon="4.52364">
        <ele>589</ele>
        <time>2021-03-02T19:20:39Z</time>
      </trkpt>
      <trkpt lat="45.99692" lon="4.52346">
        <ele>590</ele>
        <time>2021-03-02T19:21:00Z</time>
      </trkpt>
      <trkpt lat="45.9969" lon="4.52323">
        <ele>591</ele>
        <time>2021-03-02T19:21:22Z</time>
      </trkpt>
      <trkpt lat="45.99699" lon="4.52336">
        <ele>593</ele>
        <time>2021-03-02T19:21:39Z</time>
      </trkpt>
      <trkpt lat="45.99707" lon="4.52341">
        <ele>593</ele>
        <time>2021-03-02T19:21:50Z</time>
      </trkpt>
      <trkpt lat="45.99726" lon="4.52344">
        <ele>596</ele>
        <time>2021-03-02T19:22:16Z</time>
      </trkpt>
      <trkpt lat="45.99761" lon="4.52342">
        <ele>603</ele>
        <time>2021-03-02T19:23:02Z</time>
      </trkpt>
      <trkpt lat="45.99794" lon="4.52329">
        <ele>611</ele>
        <time>2021-03-02T19:23:48Z</time>
      </trkpt>
      <trkpt lat="45.99807" lon="4.52329">
        <ele>614</ele>
        <time>2021-03-02T19:24:05Z</time>
      </trkpt>
      <trkpt lat="45.99851" lon="4.52342">
        <ele>618</ele>
        <time>2021-03-02T19:25:05Z</time>
      </trkpt>
      <trkpt lat="45.99865" lon="4.52349">
        <ele>619</ele>
        <time>2021-03-02T19:25:25Z</time>
      </trkpt>
      <trkpt lat="45.99878" lon="4.52361">
        <ele>619</ele>
        <time>2021-03-02T19:25:46Z</time>
      </trkpt>
      <trkpt lat="45.9992" lon="4.52413">
        <ele>624</ele>
        <time>2021-03-02T19:27:00Z</time>
      </trkpt>
      <trkpt lat="45.99953" lon="4.52447">
        <ele>623</ele>
        <time>2021-03-02T19:27:54Z</time>
      </trkpt>
      <trkpt lat="46" lon="4.52501">
        <ele>626</ele>
        <time>2021-03-02T19:29:14Z</time>
      </trkpt>
      <trkpt lat="46.00031" lon="4.52531">
        <ele>626</ele>
        <time>2021-03-02T19:30:04Z</time>
      </trkpt>
      <trkpt lat="46.00081" lon="4.52565">
        <ele>626</ele>
        <time>2021-03-02T19:31:18Z</time>
      </trkpt>
      <trkpt lat="46.00095" lon="4.52577">
        <ele>626</ele>
        <time>2021-03-02T19:31:39Z</time>
      </trkpt>
      <trkpt lat="46.0012" lon="4.52604">
        <ele>625</ele>
        <time>2021-03-02T19:32:21Z</time>
      </trkpt>
      <trkpt lat="46.00168" lon="4.52671">
        <ele>625</ele>
        <time>2021-03-02T19:33:50Z</time>
      </trkpt>
      <trkpt lat="46.00186" lon="4.52691">
        <ele>625</ele>
        <time>2021-03-02T19:34:21Z</time>
      </trkpt>
      <trkpt lat="46.00218" lon="4.52705">
        <ele>622</ele>
        <time>2021-03-02T19:35:05Z</time>
      </trkpt>
      <trkpt lat="46.00224" lon="4.52699">
        <ele>622</ele>
        <time>2021-03-02T19:35:15Z</time>
      </trkpt>
      <trkpt lat="46.00277" lon="4.52672">
        <ele>621</ele>
        <time>2021-03-02T19:36:30Z</time>
      </trkpt>
      <trkpt lat="46.00374" lon="4.52609">
        <ele>620</ele>
        <time>2021-03-02T19:38:52Z</time>
      </trkpt>
      <trkpt lat="46.00453" lon="4.52527">
        <ele>620</ele>
        <time>2021-03-02T19:41:02Z</time>
      </trkpt>
      <trkpt lat="46.00491" lon="4.52481">
        <ele>623</ele>
        <time>2021-03-02T19:42:08Z</time>
      </trkpt>
      <trkpt lat="46.00531" lon="4.52437">
        <ele>624</ele>
        <time>2021-03-02T19:43:16Z</time>
      </trkpt>
      <trkpt lat="46.00585" lon="4.52388">
        <ele>632</ele>
        <time>2021-03-02T19:44:41Z</time>
      </trkpt>
      <trkpt lat="46.00609" lon="4.52364">
        <ele>633</ele>
        <time>2021-03-02T19:45:20Z</time>
      </trkpt>
      <trkpt lat="46.00638" lon="4.52325">
        <ele>638</ele>
        <time>2021-03-02T19:46:13Z</time>
      </trkpt>
      <trkpt lat="46.0065" lon="4.52314">
        <ele>640</ele>
        <time>2021-03-02T19:46:32Z</time>
      </trkpt>
      <trkpt lat="46.00696" lon="4.52295">
        <ele>642</ele>
        <time>2021-03-02T19:47:36Z</time>
      </trkpt>
      <trkpt lat="46.00758" lon="4.52284">
        <ele>640</ele>
        <time>2021-03-02T19:48:59Z</time>
      </trkpt>
      <trkpt lat="46.00815" lon="4.52262">
        <ele>641</ele>
        <time>2021-03-02T19:50:18Z</time>
      </trkpt>
      <trkpt lat="46.00908" lon="4.52243">
        <ele>640</ele>
        <time>2021-03-02T19:52:23Z</time>
      </trkpt>
      <trkpt lat="46.00929" lon="4.52235">
        <ele>639</ele>
        <time>2021-03-02T19:52:52Z</time>
      </trkpt>
      <trkpt lat="46.00951" lon="4.52224">
        <ele>639</ele>
        <time>2021-03-02T19:53:23Z</time>
      </trkpt>
      <trkpt lat="46.01008" lon="4.52181">
        <ele>642</ele>
        <time>2021-03-02T19:54:49Z</time>
      </trkpt>
      <trkpt lat="46.01028" lon="4.52167">
        <ele>643</ele>
        <time>2021-03-02T19:55:19Z</time>
      </trkpt>
      <trkpt lat="46.01046" lon="4.52151">
        <ele>643</ele>
        <time>2021-03-02T19:55:47Z</time>
      </trkpt>
      <trkpt lat="46.01073" lon="4.5212">
        <ele>642</ele>
        <time>2021-03-02T19:56:33Z</time>
      </trkpt>
      <trkpt lat="46.01107" lon="4.52066">
        <ele>640</ele>
        <time>2021-03-02T19:57:40Z</time>
      </trkpt>
      <trkpt lat="46.01143" lon="4.51991">
        <ele>634</ele>
        <time>2021-03-02T19:59:05Z</time>
      </trkpt>
      <trkpt lat="46.01154" lon="4.51958">
        <ele>633</ele>
        <time>2021-03-02T19:59:39Z</time>
      </trkpt>
      <trkpt lat="46.0116" lon="4.51927">
        <ele>632</ele>
        <time>2021-03-02T20:00:09Z</time>
      </trkpt>
      <trkpt lat="46.01168" lon="4.51817">
        <ele>625</ele>
        <time>2021-03-02T20:01:51Z</time>
      </trkpt>
      <trkpt lat="46.01174" lon="4.51781">
        <ele>622</ele>
        <time>2021-03-02T20:02:26Z</time>
      </trkpt>
      <trkpt lat="46.01194" lon="4.51696">
        <ele>614</ele>
        <time>2021-03-02T20:03:49Z</time>
      </trkpt>
      <trkpt lat="46.01203" lon="4.51611">
        <ele>606</ele>
        <time>2021-03-02T20:05:08Z</time>
      </trkpt>
      <trkpt lat="46.01207" lon="4.51586">
        <ele>605</ele>
        <time>2021-03-02T20:05:32Z</time>
      </trkpt>
      <trkpt lat="46.0121" lon="4.51581">
        <ele>604</ele>
        <time>2021-03-02T20:05:38Z</time>
      </trkpt>
      <trkpt lat="46.01215" lon="4.51577">
        <ele>604</ele>
        <time>2021-03-02T20:05:46Z</time>
      </trkpt>
      <trkpt lat="46.01227" lon="4.51577">
        <ele>605</ele>
        <time>2021-03-02T20:06:02Z</time>
      </trkpt>
      <trkpt lat="46.01258" lon="4.51592">
        <ele>606</ele>
        <time>2021-03-02T20:06:46Z</time>
      </trkpt>
      <trkpt lat="46.01302" lon="4.5161">
        <ele>598</ele>
        <time>2021-03-02T20:07:47Z</time>
      </trkpt>
      <trkpt lat="46.01311" lon="4.51613">
        <ele>597</ele>
        <time>2021-03-02T20:07:59Z</time>
      </trkpt>
      <trkpt lat="46.01356" lon="4.51616">
        <ele>587</ele>
        <time>2021-03-02T20:08:59Z</time>
      </trkpt>
      <trkpt lat="46.01378" lon="4.51625">
        <ele>583</ele>
        <time>2021-03-02T20:09:30Z</time>
      </trkpt>
      <trkpt lat="46.01445" lon="4.5167">
        <ele>579</ele>
        <time>2021-03-02T20:11:08Z</time>
      </trkpt>
      <trkpt lat="46.01468" lon="4.51677">
        <ele>576</ele>
        <time>2021-03-02T20:11:40Z</time>
      </trkpt>
      <trkpt lat="46.01505" lon="4.51681">
        <ele>572</ele>
        <time>2021-03-02T20:12:29Z</time>
      </trkpt>
      <trkpt lat="46.01508" lon="4.51678">
        <ele>572</ele>
        <time>2021-03-02T20:12:34Z</time>
      </trkpt>
      <trkpt lat="46.0151" lon="4.51672">
        <ele>571</ele>
        <time>2021-03-02T20:12:40Z</time>
      </trkpt>
      <trkpt lat="46.01538" lon="4.51672">
        <ele>572</ele>
        <time>2021-03-02T20:13:18Z</time>
      </trkpt>
      <trkpt lat="46.01569" lon="4.51684">
        <ele>574</ele>
        <time>2021-03-02T20:14:00Z</time>
      </trkpt>
      <trkpt lat="46.01578" lon="4.51684">
        <ele>574</ele>
        <time>2021-03-02T20:14:12Z</time>
      </trkpt>
      <trkpt lat="46.01617" lon="4.51673">
        <ele>576</ele>
        <time>2021-03-02T20:15:05Z</time>
      </trkpt>
      <trkpt lat="46.01656" lon="4.51658">
        <ele>579</ele>
        <time>2021-03-02T20:15:59Z</time>
      </trkpt>
    </trkseg>
  </trk>
</gpx>